Time;durP1;ratioP1;P1;durP2;ratioP2;P2;SDS_P1;SDS_P2;PMS_P1;PMS_P2;Temp;Humidity;BMP_temperature;BMP_pressure;BME280_temperature;BME280_humidity;BME280_pressure;Samples;Min_cycle;Max_cycle;Signal;HPM_P1;HPM_P2
2022/02/11 00:02:15;;;;;;;7.78;2.42;;;6.10;82.50;;;;;;9179958;19;20021;-64
2022/02/11 00:05:46;;;;;;;19.15;2.78;;;6.00;83.10;;;;;;9178726;19;20034;-63
2022/02/11 00:08:51;;;;;;;12.68;2.45;;;6.00;82.40;;;;;;9180424;19;20015;-65
2022/02/11 00:11:57;;;;;;;8.20;2.63;;;6.00;82.50;;;;;;9182427;19;20019;-63
2022/02/11 00:15:28;;;;;;;12.27;2.35;;;5.90;82.50;;;;;;9179970;19;20025;-63
2022/02/11 00:18:32;;;;;;;6.20;2.30;;;5.90;82.50;;;;;;9176392;19;20028;-64
2022/02/11 00:21:39;;;;;;;6.72;1.95;;;5.90;82.50;;;;;;9178420;19;20644;-65
2022/02/11 00:24:44;;;;;;;8.45;2.85;;;5.90;82.60;;;;;;9179283;19;20010;-64
2022/02/11 00:34:35;;;;;;;10.20;2.22;;;5.80;82.60;;;;;;9179009;19;20025;-64
2022/02/11 00:37:41;;;;;;;8.98;2.85;;;5.80;82.60;;;;;;9177649;19;20019;-63
2022/02/11 01:04:36;;;;;;;9.82;2.55;;;5.70;82.70;;;;;;9174129;19;20102;-64
2022/02/11 01:07:41;;;;;;;7.72;2.42;;;5.70;82.80;;;;;;9176266;19;20027;-64
2022/02/11 01:10:46;;;;;;;15.13;2.70;;;5.70;82.80;;;;;;9176980;19;20475;-64
2022/02/11 01:13:51;;;;;;;11.10;2.63;;;5.70;82.90;;;;;;9179175;19;20038;-65
2022/02/11 01:17:03;;;;;;;9.35;2.42;;;5.70;82.90;;;;;;9174312;19;20011;-63
2022/02/11 01:20:18;;;;;;;17.80;3.65;;;5.70;83.00;;;;;;9175938;19;20472;-64
2022/02/11 01:23:40;;;;;;;;;;;5.70;82.90;;;;;;9177334;19;20029;-66
2022/02/11 01:27:00;;;;;;;15.45;2.50;;;5.70;82.90;;;;;;9178791;19;19923;-63
2022/02/11 01:30:35;;;;;;;9.82;2.40;;;5.70;82.90;;;;;;9178711;19;20021;-64
2022/02/11 01:33:53;;;;;;;8.98;2.33;;;5.70;83.50;;;;;;9180176;19;20495;-63
2022/02/11 01:37:20;;;;;;;10.50;2.63;;;5.80;82.90;;;;;;9179365;19;20038;-65
2022/02/11 01:44:11;;;;;;;14.32;3.05;;;5.80;82.90;;;;;;9173404;19;20023;-64
2022/02/11 01:50:51;;;;;;;9.40;2.20;;;5.80;82.90;;;;;;9174554;19;20018;-64
2022/02/11 01:54:06;;;;;;;8.40;1.70;;;5.80;82.80;;;;;;9177349;19;20684;-63
2022/02/11 01:57:25;;;;;;;14.38;2.50;;;5.80;82.80;;;;;;9176757;19;20018;-64
2022/02/11 02:04:27;;;;;;;11.10;2.20;;;5.90;82.90;;;;;;9177903;19;20019;-65
2022/02/11 02:14:55;;;;;;;13.32;2.55;;;5.90;82.80;;;;;;9174314;19;20011;-64
2022/02/11 02:25:00;;;;;;;8.00;1.73;;;5.80;82.70;;;;;;9183654;19;20014;-67
2022/02/11 02:35:12;;;;;;;12.18;2.65;;;5.80;82.70;;;;;;9180395;19;20082;-65
2022/02/11 02:38:40;;;;;;;16.85;2.05;;;5.80;82.80;;;;;;9184628;19;20010;-64
2022/02/11 02:58:30;;;;;;;9.52;2.30;;;5.70;83.00;;;;;;9182975;19;20011;-63
2022/02/11 03:01:50;;;;;;;9.32;2.20;;;5.70;83.10;;;;;;9183621;19;20082;-66
2022/02/11 03:15:15;;;;;;;7.20;1.95;;;5.60;83.00;;;;;;9181900;19;20949;-62
2022/02/11 03:34:58;;;;;;;9.15;2.15;;;5.50;83.10;;;;;;9178208;19;20010;-64
2022/02/11 03:51:38;;;;;;;7.55;2.28;;;5.50;83.40;;;;;;9183419;19;20023;-62
2022/02/11 03:58:31;;;;;;;7.95;2.08;;;5.40;83.40;;;;;;9180592;19;20025;-63
2022/02/11 04:55:04;;;;;;;15.70;2.40;;;5.50;84.40;;;;;;9179508;19;20023;-64
2022/02/11 05:01:27;;;;;;;26.08;3.30;;;5.60;84.50;;;;;;9181908;19;20014;-64
2022/02/11 05:04:32;;;;;;;21.25;3.42;;;5.60;84.50;;;;;;9177172;19;20014;-63
2022/02/11 05:07:38;;;;;;;17.00;2.08;;;5.60;84.50;;;;;;9179238;19;20022;-65
2022/02/11 05:10:46;;;;;;;23.30;2.15;;;5.70;84.60;;;;;;9178307;19;20607;-63
2022/02/11 05:13:51;;;;;;;18.92;2.85;;;5.70;84.70;;;;;;9178985;19;20018;-63
2022/02/11 05:16:56;;;;;;;17.15;2.38;;;5.70;84.70;;;;;;9174664;19;20014;-64
2022/02/11 05:20:01;;;;;;;19.88;2.28;;;5.80;84.70;;;;;;9178681;19;20037;-63
2022/02/11 05:23:08;;;;;;;27.13;3.35;;;5.80;84.70;;;;;;9178909;19;20676;-63
2022/02/11 05:26:16;;;;;;;13.43;2.60;;;5.80;84.70;;;;;;9178903;19;20357;-65
2022/02/11 05:29:21;;;;;;;10.82;1.90;;;5.90;84.80;;;;;;9180998;19;20495;-64
2022/02/11 05:32:26;;;;;;;16.83;2.30;;;5.90;84.80;;;;;;9175776;19;20011;-65
2022/02/11 05:35:31;;;;;;;13.60;2.63;;;5.90;84.70;;;;;;9176940;19;20480;-66
2022/02/11 05:38:36;;;;;;;18.23;2.60;;;5.90;84.80;;;;;;9178170;19;20056;-63
2022/02/11 05:41:44;;;;;;;12.48;2.15;;;5.90;84.70;;;;;;9178101;19;20018;-64
2022/02/11 05:44:49;;;;;;;13.30;2.10;;;6.00;84.70;;;;;;9178434;19;20349;-64
2022/02/11 05:47:54;;;;;;;15.13;1.98;;;6.00;84.70;;;;;;9176773;19;20014;-63
2022/02/11 05:51:00;;;;;;;14.88;2.17;;;6.00;84.60;;;;;;9175185;19;20015;-63
2022/02/11 05:54:05;;;;;;;12.20;2.28;;;6.00;84.60;;;;;;9176017;19;20018;-63
2022/02/11 05:57:13;;;;;;;15.38;2.67;;;6.00;84.40;;;;;;9177085;19;20015;-63
2022/02/11 06:00:19;;;;;;;15.15;2.90;;;6.00;84.50;;;;;;9177961;19;20011;-65
2022/02/11 06:03:24;;;;;;;12.48;2.40;;;6.00;84.40;;;;;;9174581;19;20026;-63
2022/02/11 06:06:29;;;;;;;15.18;1.88;;;6.00;84.40;;;;;;9176970;19;20025;-64
2022/02/11 06:09:34;;;;;;;11.82;2.17;;;6.00;84.40;;;;;;9175198;19;20657;-65
2022/02/11 06:12:41;;;;;;;20.00;3.00;;;6.00;84.40;;;;;;9177143;19;20025;-63
2022/02/11 06:15:48;;;;;;;16.15;2.42;;;6.00;84.40;;;;;;9178224;19;20446;-65
2022/02/11 06:18:54;;;;;;;16.65;2.38;;;6.00;84.30;;;;;;9170539;19;20025;-64
2022/02/11 06:22:00;;;;;;;14.55;2.92;;;6.00;84.30;;;;;;9177044;19;20467;-65
2022/02/11 06:25:06;;;;;;;15.07;2.25;;;6.00;84.30;;;;;;9175572;19;20443;-64
2022/02/11 06:28:15;;;;;;;15.02;2.55;;;6.00;84.30;;;;;;9178227;19;20022;-63
2022/02/11 06:31:20;;;;;;;23.33;3.05;;;6.00;84.20;;;;;;9176208;19;20019;-63
2022/02/11 06:34:25;;;;;;;14.52;2.80;;;6.00;84.30;;;;;;9173530;19;20018;-64
2022/02/11 06:37:30;;;;;;;17.95;2.60;;;6.00;84.20;;;;;;9173573;19;20017;-63
2022/02/11 06:40:37;;;;;;;20.90;3.05;;;6.00;84.20;;;;;;9175617;19;20015;-63
2022/02/11 06:43:45;;;;;;;9.60;2.22;;;6.00;84.10;;;;;;9175826;19;20010;-64
2022/02/11 06:46:50;;;;;;;10.52;2.60;;;5.90;84.10;;;;;;9178238;19;20010;-62
2022/02/11 06:49:55;;;;;;;21.70;2.33;;;5.90;84.00;;;;;;9173654;19;20006;-63
2022/02/11 06:53:00;;;;;;;20.80;2.15;;;5.90;84.00;;;;;;9173083;19;20038;-64
2022/02/11 06:56:05;;;;;;;18.15;3.05;;;5.90;84.00;;;;;;9175034;19;20602;-64
2022/02/11 06:59:14;;;;;;;17.88;2.78;;;5.90;84.00;;;;;;9175512;19;20019;-63
2022/02/11 07:02:20;;;;;;;27.52;3.03;;;5.90;84.00;;;;;;9174269;19;20022;-65
2022/02/11 07:05:27;;;;;;;20.85;3.05;;;5.90;84.10;;;;;;9172405;19;20705;-63
2022/02/11 07:08:32;;;;;;;27.42;2.88;;;5.90;84.00;;;;;;9173909;19;20022;-63
2022/02/11 07:11:37;;;;;;;20.88;2.85;;;5.90;84.10;;;;;;9179663;19;20646;-63
2022/02/11 07:14:44;;;;;;;13.20;2.35;;;5.90;84.00;;;;;;9183340;19;20018;-64
2022/02/11 07:17:49;;;;;;;12.20;2.85;;;5.90;84.00;;;;;;9177894;19;20022;-62
2022/02/11 07:20:54;;;;;;;16.10;2.53;;;5.90;83.90;;;;;;9177503;19;20829;-63
2022/02/11 07:23:59;;;;;;;14.55;2.88;;;5.90;84.00;;;;;;9182595;19;20025;-64
2022/02/11 07:27:05;;;;;;;11.75;2.53;;;5.90;84.00;;;;;;9182769;19;20011;-64
2022/02/11 07:30:13;;;;;;;19.42;2.75;;;5.90;83.90;;;;;;9184769;19;20468;-64
2022/02/11 07:33:17;;;;;;;26.38;3.30;;;5.90;84.00;;;;;;9185331;19;20456;-64
2022/02/11 07:36:22;;;;;;;18.00;2.50;;;5.90;83.90;;;;;;9179547;19;20391;-64
2022/02/11 07:39:29;;;;;;;16.15;2.88;;;5.90;83.90;;;;;;9180612;19;20018;-65
2022/02/11 07:42:36;;;;;;;31.00;4.07;;;5.90;84.00;;;;;;9182219;19;20022;-65
2022/02/11 07:45:43;;;;;;;23.35;3.15;;;5.90;84.00;;;;;;9183853;19;20018;-66
2022/02/11 07:48:48;;;;;;;22.25;2.83;;;5.90;84.00;;;;;;9184326;19;20010;-65
2022/02/11 07:51:53;;;;;;;18.80;2.47;;;5.90;84.00;;;;;;9180704;19;20062;-64
2022/02/11 07:54:58;;;;;;;11.45;2.72;;;5.90;84.00;;;;;;9182849;19;20045;-64
2022/02/11 07:58:03;;;;;;;22.95;3.33;;;5.90;84.00;;;;;;9179630;19;20345;-64
2022/02/11 08:01:13;;;;;;;13.05;2.17;;;5.90;84.00;;;;;;9183671;19;20018;-65
2022/02/11 08:04:18;;;;;;;15.27;3.00;;;5.80;84.00;;;;;;9182341;19;20018;-67
2022/02/11 08:07:23;;;;;;;12.77;2.15;;;5.90;84.00;;;;;;9179947;19;20018;-65
2022/02/11 08:10:28;;;;;;;14.90;2.80;;;5.90;84.10;;;;;;9180246;19;20022;-64
2022/02/11 08:13:34;;;;;;;13.18;2.47;;;5.80;84.00;;;;;;9182984;19;20011;-64
2022/02/11 08:16:41;;;;;;;16.35;2.83;;;5.90;84.10;;;;;;9182252;19;20090;-64
2022/02/11 08:19:46;;;;;;;18.70;3.15;;;5.90;84.20;;;;;;9176205;19;20018;-64
2022/02/11 08:22:52;;;;;;;12.38;2.22;;;5.90;84.10;;;;;;9178829;19;20023;-64
2022/02/11 08:25:57;;;;;;;19.95;3.22;;;5.90;84.20;;;;;;9179051;19;20014;-68
2022/02/11 08:29:02;;;;;;;22.60;3.67;;;5.90;84.20;;;;;;9182502;19;20030;-64
2022/02/11 08:32:11;;;;;;;25.05;3.10;;;5.90;84.20;;;;;;9182700;19;20015;-64
2022/02/11 08:35:16;;;;;;;24.60;3.50;;;5.90;84.20;;;;;;9177913;19;20019;-66
2022/02/11 08:38:21;;;;;;;15.32;3.08;;;5.90;84.20;;;;;;9178806;19;20804;-63
2022/02/11 08:41:27;;;;;;;21.80;4.43;;;6.00;84.20;;;;;;9178052;19;20018;-64
2022/02/11 08:44:32;;;;;;;28.45;3.65;;;6.00;84.10;;;;;;9179968;19;20022;-66
2022/02/11 08:47:39;;;;;;;12.52;3.05;;;6.00;84.20;;;;;;9180701;19;20015;-64
2022/02/11 08:50:46;;;;;;;19.60;2.65;;;6.00;84.20;;;;;;9179647;19;20015;-64
2022/02/11 08:54:08;;;;;;;20.48;3.13;;;6.00;84.10;;;;;;9175245;19;20018;-65
2022/02/11 08:57:13;;;;;;;27.48;3.13;;;6.10;84.20;;;;;;9175909;19;20023;-64
2022/02/11 09:00:19;;;;;;;22.33;3.47;;;6.10;84.20;;;;;;9179670;19;20023;-64
2022/02/11 09:03:27;;;;;;;18.02;3.15;;;6.10;84.10;;;;;;9175541;19;20018;-64
2022/02/11 09:06:32;;;;;;;14.95;3.47;;;6.10;84.20;;;;;;9172922;19;20074;-65
2022/02/11 09:09:38;;;;;;;19.95;2.85;;;6.10;84.20;;;;;;9175772;19;20348;-64
2022/02/11 09:12:43;;;;;;;21.58;3.30;;;6.10;84.20;;;;;;9172588;19;20030;-64
2022/02/11 09:15:48;;;;;;;14.98;2.65;;;6.20;84.30;;;;;;9170834;19;20395;-65
2022/02/11 09:18:56;;;;;;;17.00;2.50;;;6.30;84.30;;;;;;9168832;19;20018;-64
2022/02/11 09:22:01;;;;;;;18.63;2.42;;;6.30;84.30;;;;;;9169379;19;20052;-66
2022/02/11 09:25:07;;;;;;;17.05;1.92;;;6.40;84.30;;;;;;9169102;19;20018;-64
2022/02/11 09:28:12;;;;;;;16.90;2.70;;;6.40;84.10;;;;;;9174011;19;20374;-65
2022/02/11 09:31:18;;;;;;;12.77;2.47;;;6.40;84.00;;;;;;9169368;19;20022;-64
2022/02/11 09:34:26;;;;;;;19.88;2.88;;;6.50;84.00;;;;;;9171270;19;20006;-66
2022/02/11 09:37:32;;;;;;;16.02;2.85;;;6.50;84.00;;;;;;9170934;19;20042;-65
2022/02/11 09:40:40;;;;;;;19.10;2.78;;;6.60;84.00;;;;;;9175018;19;20038;-67
2022/02/11 09:43:48;;;;;;;16.40;2.40;;;6.60;84.00;;;;;;9174722;19;20015;-64
2022/02/11 09:46:53;;;;;;;13.70;2.65;;;6.70;84.00;;;;;;9173348;19;20015;-65
2022/02/11 09:50:00;;;;;;;13.27;2.78;;;6.70;83.90;;;;;;9171918;19;20274;-61
2022/02/11 09:53:04;;;;;;;20.35;3.00;;;6.80;84.00;;;;;;9172965;19;20018;-64
2022/02/11 09:56:09;;;;;;;22.27;3.95;;;6.80;84.20;;;;;;9170916;19;20771;-61
2022/02/11 09:59:34;;;;;;;23.83;3.33;;;7.00;84.30;;;;;;9171399;19;20018;-60
2022/02/11 10:02:51;;;;;;;16.30;3.47;;;7.10;84.10;;;;;;9174647;19;20010;-60
2022/02/11 10:06:01;;;;;;;18.80;3.17;;;7.20;83.70;;;;;;9175757;19;20033;-60
2022/02/11 10:09:07;;;;;;;30.50;4.25;;;7.20;83.50;;;;;;9170764;19;20014;-60
2022/02/11 10:12:12;;;;;;;19.65;3.45;;;7.30;83.50;;;;;;9171034;19;20029;-61
2022/02/11 10:15:21;;;;;;;25.13;3.33;;;7.30;83.40;;;;;;9170863;19;20022;-59
2022/02/11 10:18:30;;;;;;;23.15;3.30;;;7.40;83.30;;;;;;9167679;19;20022;-60
2022/02/11 10:21:37;;;;;;;26.20;3.38;;;7.40;83.60;;;;;;9165472;19;20029;-61
2022/02/11 10:24:43;;;;;;;23.30;4.13;;;7.50;83.70;;;;;;9171881;19;20014;-61
2022/02/11 10:27:47;;;;;;;22.10;3.42;;;7.70;83.90;;;;;;9172389;19;20649;-60
2022/02/11 10:31:09;;;;;;;20.23;4.00;;;7.80;83.50;;;;;;9171707;19;20018;-60
2022/02/11 10:34:18;;;;;;;19.88;3.50;;;7.90;83.10;;;;;;9174442;19;20026;-59
2022/02/11 10:37:26;;;;;;;14.15;3.20;;;8.00;83.10;;;;;;9174589;19;20018;-59
2022/02/11 10:40:32;;;;;;;18.13;3.25;;;8.10;82.90;;;;;;9176259;19;20029;-62
2022/02/11 10:43:37;;;;;;;18.80;2.92;;;8.10;82.80;;;;;;9176793;19;20423;-64
2022/02/11 10:46:44;;;;;;;21.25;3.03;;;8.10;82.60;;;;;;9179186;19;20022;-65
2022/02/11 10:49:51;;;;;;;18.35;3.13;;;8.10;82.50;;;;;;9181698;19;20018;-65
2022/02/11 10:52:58;;;;;;;24.92;3.10;;;8.20;82.40;;;;;;9176494;19;20007;-64
2022/02/11 10:56:06;;;;;;;19.05;4.63;;;8.10;82.20;;;;;;9176419;19;20014;-63
2022/02/11 10:59:11;;;;;;;21.30;3.15;;;8.10;82.10;;;;;;9180564;19;20022;-63
2022/02/11 11:02:18;;;;;;;18.15;2.85;;;8.20;82.10;;;;;;9176712;19;20022;-65
2022/02/11 11:05:24;;;;;;;23.02;3.00;;;8.20;82.20;;;;;;9181371;19;20021;-66
2022/02/11 11:08:35;;;;;;;21.70;3.15;;;8.20;82.10;;;;;;9173479;19;20047;-64
2022/02/11 11:11:46;;;;;;;20.67;2.97;;;8.20;82.10;;;;;;9178385;19;20356;-65
2022/02/11 11:14:54;;;;;;;17.17;3.08;;;8.20;82.20;;;;;;9179184;19;20501;-63
2022/02/11 11:18:03;;;;;;;12.50;2.83;;;8.30;82.10;;;;;;9173578;19;20111;-65
2022/02/11 11:21:10;;;;;;;13.40;2.58;;;8.30;82.00;;;;;;9181159;19;20078;-65
2022/02/11 11:24:20;;;;;;;10.73;2.13;;;8.30;81.90;;;;;;9181334;19;20026;-64
2022/02/11 11:27:41;;;;;;;18.65;3.10;;;8.30;81.80;;;;;;9180814;19;20021;-65
2022/02/11 11:30:55;;;;;;;9.82;2.53;;;8.30;81.50;;;;;;9179891;19;20015;-67
2022/02/11 11:34:29;;;;;;;20.13;2.33;;;8.40;81.60;;;;;;9176970;19;20019;-63
2022/02/11 11:37:34;;;;;;;12.15;2.05;;;8.40;81.40;;;;;;9176417;19;20022;-64
2022/02/11 11:40:42;;;;;;;16.30;2.03;;;8.40;81.50;;;;;;9178437;19;20014;-63
2022/02/11 11:43:49;;;;;;;14.88;1.92;;;8.40;81.40;;;;;;9178537;19;20025;-63
2022/02/11 11:46:56;;;;;;;17.40;2.85;;;8.40;81.40;;;;;;9178922;19;20015;-64
2022/02/11 11:50:03;;;;;;;13.82;2.28;;;8.40;81.30;;;;;;9180403;19;20019;-63
2022/02/11 11:53:26;;;;;;;10.80;1.67;;;8.40;81.20;;;;;;9182454;19;20372;-65
2022/02/11 11:56:38;;;;;;;13.25;2.13;;;8.40;80.90;;;;;;9177781;19;20029;-63
2022/02/11 11:59:47;;;;;;;16.30;2.35;;;8.30;80.90;;;;;;9175263;19;20022;-64
2022/02/11 12:02:55;;;;;;;20.65;2.88;;;8.30;81.10;;;;;;9176041;19;20472;-65
2022/02/11 12:06:01;;;;;;;13.15;2.10;;;8.30;81.10;;;;;;9179756;19;20018;-62
2022/02/11 12:09:06;;;;;;;13.68;2.58;;;8.30;81.10;;;;;;9179572;19;20010;-63
2022/02/11 12:12:16;;;;;;;14.82;2.97;;;8.30;81.00;;;;;;9180999;19;20027;-63
2022/02/11 12:15:21;;;;;;;22.30;2.47;;;8.30;81.00;;;;;;9180053;19;20018;-64
2022/02/11 12:18:26;;;;;;;20.08;2.60;;;8.30;81.00;;;;;;9174062;19;20018;-63
2022/02/11 12:21:31;;;;;;;14.32;2.33;;;8.30;81.00;;;;;;9175659;19;20017;-61
2022/02/11 12:27:59;;;;;;;21.23;3.22;;;8.30;80.80;;;;;;9175423;19;20037;-60
2022/02/11 12:31:06;;;;;;;21.13;1.90;;;8.40;80.70;;;;;;9171001;19;20033;-60
2022/02/11 12:34:15;;;;;;;18.58;3.13;;;8.30;80.60;;;;;;9177711;19;20392;-60
2022/02/11 12:37:21;;;;;;;24.20;2.60;;;8.30;80.40;;;;;;9178277;19;20078;-60
2022/02/11 12:40:28;;;;;;;21.42;3.15;;;8.30;80.40;;;;;;9175083;19;20014;-60
2022/02/11 12:43:36;;;;;;;21.05;4.20;;;8.30;80.30;;;;;;9177728;19;20022;-61
2022/02/11 12:46:41;;;;;;;13.88;2.00;;;8.30;80.30;;;;;;9174187;19;20067;-60
2022/02/11 12:49:48;;;;;;;9.25;2.60;;;8.30;80.40;;;;;;9175553;19;20482;-59
2022/02/11 12:52:53;;;;;;;16.33;2.85;;;8.30;80.20;;;;;;9177371;19;20042;-61
2022/02/11 12:55:58;;;;;;;26.73;2.78;;;8.30;80.00;;;;;;9176418;19;20014;-61
2022/02/11 12:59:10;;;;;;;17.15;2.75;;;8.30;80.00;;;;;;9179667;19;20056;-59
2022/02/11 13:02:25;;;;;;;12.57;1.95;;;8.30;79.70;;;;;;9177452;19;20022;-61
2022/02/11 13:05:33;;;;;;;9.23;1.42;;;8.30;79.50;;;;;;9173814;19;20014;-61
2022/02/11 13:08:38;;;;;;;11.85;2.75;;;8.30;79.60;;;;;;9171925;19;20344;-60
2022/02/11 13:11:45;;;;;;;19.65;2.75;;;8.30;79.40;;;;;;9174472;19;20656;-60
2022/02/11 13:14:53;;;;;;;14.90;2.33;;;8.30;79.30;;;;;;9174279;19;20495;-62
2022/02/11 13:18:07;;;;;;;10.60;1.67;;;8.30;79.20;;;;;;9171984;19;20029;-60
2022/02/11 13:21:13;;;;;;;18.08;2.50;;;8.30;79.10;;;;;;9176756;19;20108;-59
2022/02/11 13:24:18;;;;;;;11.73;2.20;;;8.30;79.10;;;;;;9177419;19;20022;-64
2022/02/11 13:27:23;;;;;;;9.85;1.50;;;8.30;79.00;;;;;;9178472;19;20018;-59
2022/02/11 13:30:33;;;;;;;15.82;2.38;;;8.30;78.70;;;;;;9174570;19;20046;-60
2022/02/11 13:33:45;;;;;;;10.43;1.75;;;8.30;78.50;;;;;;9175892;19;20018;-59
2022/02/11 13:36:50;;;;;;;12.85;2.10;;;8.30;78.50;;;;;;9174176;19;20021;-60
2022/02/11 13:39:55;;;;;;;10.10;1.98;;;8.30;78.30;;;;;;9174575;19;20021;-60
2022/02/11 13:43:03;;;;;;;8.50;1.92;;;8.20;78.00;;;;;;9175874;19;20115;-60
2022/02/11 13:46:10;;;;;;;13.85;2.60;;;8.20;77.90;;;;;;9175477;19;20026;-59
2022/02/11 13:49:16;;;;;;;13.52;2.20;;;8.10;77.50;;;;;;9176077;19;20086;-59
2022/02/11 13:55:53;;;;;;;22.85;2.97;;;8.00;77.50;;;;;;9175282;19;20011;-60
2022/02/11 13:59:06;;;;;;;11.18;1.63;;;8.00;77.40;;;;;;9173722;19;20026;-61
2022/02/11 14:02:14;;;;;;;6.07;1.20;;;8.00;77.50;;;;;;9173833;19;20022;-59
2022/02/11 14:05:19;;;;;;;12.75;1.70;;;8.00;77.80;;;;;;9175335;19;21083;-61
2022/02/11 14:08:25;;;;;;;6.03;1.17;;;8.00;77.70;;;;;;9174671;19;20488;-60
2022/02/11 14:11:37;;;;;;;14.43;1.70;;;8.00;77.50;;;;;;9174986;19;20665;-60
2022/02/11 14:14:52;;;;;;;8.70;1.55;;;8.00;77.30;;;;;;9175816;19;20014;-60
2022/02/11 14:18:00;;;;;;;18.35;2.15;;;8.00;77.20;;;;;;9172578;19;20526;-60
2022/02/11 14:21:05;;;;;;;15.88;2.42;;;8.00;77.40;;;;;;9180829;19;20022;-59
2022/02/11 14:24:10;;;;;;;10.73;2.42;;;8.00;77.20;;;;;;9181257;19;20029;-59
2022/02/11 14:27:15;;;;;;;11.05;1.58;;;8.00;76.90;;;;;;9180773;19;20372;-60
2022/02/11 14:30:20;;;;;;;14.10;1.73;;;8.10;76.80;;;;;;9181695;19;20029;-60
2022/02/11 14:33:28;;;;;;;10.65;1.85;;;8.10;76.80;;;;;;9182006;19;20018;-59
2022/02/11 14:36:33;;;;;;;16.90;2.47;;;8.00;76.60;;;;;;9179325;19;20026;-59
2022/02/11 14:39:38;;;;;;;9.68;1.17;;;8.00;76.60;;;;;;9174586;19;20010;-61
2022/02/11 14:42:43;;;;;;;9.38;1.95;;;8.00;76.60;;;;;;9178349;19;20018;-59
2022/02/11 14:45:50;;;;;;;12.48;1.98;;;8.00;76.50;;;;;;9172376;19;20026;-60
2022/02/11 14:48:58;;;;;;;12.55;1.63;;;8.00;76.30;;;;;;9176578;19;20471;-60
2022/02/11 14:52:05;;;;;;;7.85;1.20;;;8.00;76.10;;;;;;9179178;19;20026;-60
2022/02/11 14:55:11;;;;;;;9.25;1.58;;;8.00;76.80;;;;;;9181600;19;20026;-60
2022/02/11 14:58:16;;;;;;;6.70;1.40;;;8.00;76.00;;;;;;9176453;19;20051;-60
2022/02/11 15:01:21;;;;;;;9.43;1.70;;;7.90;75.80;;;;;;9171565;19;20023;-60
2022/02/11 15:04:28;;;;;;;14.93;1.85;;;7.90;75.70;;;;;;9171486;19;20045;-60
2022/02/11 15:07:33;;;;;;;8.02;1.52;;;7.80;75.50;;;;;;9169879;19;20026;-61
2022/02/11 15:10:38;;;;;;;12.13;1.40;;;7.80;75.60;;;;;;9171876;19;20030;-60
2022/02/11 15:13:51;;;;;;;5.18;1.10;;;7.80;75.60;;;;;;9172086;19;20018;-59
2022/02/11 15:16:56;;;;;;;7.10;1.45;;;7.80;76.30;;;;;;9163754;19;20074;-60
2022/02/11 15:20:04;;;;;;;5.85;1.35;;;7.70;75.50;;;;;;9176079;19;20018;-60
2022/02/11 15:23:09;;;;;;;8.60;2.00;;;7.70;75.50;;;;;;9173819;19;20018;-60
2022/02/11 15:26:16;;;;;;;10.27;3.58;;;7.70;75.50;;;;;;9178465;19;20018;-59
2022/02/11 15:29:21;;;;;;;8.45;1.55;;;7.60;75.50;;;;;;9182362;19;20049;-59
2022/02/11 15:32:26;;;;;;;6.82;1.45;;;7.60;75.50;;;;;;9179385;19;20023;-60
2022/02/11 15:35:33;;;;;;;10.02;1.60;;;7.60;75.40;;;;;;9178874;19;20025;-59
2022/02/11 15:38:39;;;;;;;10.38;1.73;;;7.60;75.40;;;;;;9179711;19;20023;-59
2022/02/11 15:41:43;;;;;;;5.50;1.63;;;7.50;75.40;;;;;;9179723;19;20014;-59
2022/02/11 15:44:48;;;;;;;4.45;1.13;;;7.50;75.40;;;;;;9179999;19;20375;-59
2022/02/11 15:47:54;;;;;;;6.78;1.85;;;7.50;75.40;;;;;;9178031;19;20022;-59
2022/02/11 15:51:02;;;;;;;4.93;1.30;;;7.50;75.40;;;;;;9177369;19;20014;-59
2022/02/11 15:54:07;;;;;;;9.73;1.30;;;7.40;75.20;;;;;;9177083;19;20026;-60
2022/02/11 15:57:12;;;;;;;17.08;2.30;;;7.40;75.20;;;;;;9180904;19;20022;-60
2022/02/11 16:00:18;;;;;;;7.63;1.55;;;7.40;75.10;;;;;;9176754;19;20015;-58
2022/02/11 16:03:24;;;;;;;10.80;2.10;;;7.40;75.10;;;;;;9175351;19;20022;-59
2022/02/11 16:06:31;;;;;;;7.75;1.70;;;7.40;75.00;;;;;;9177721;19;20480;-60
2022/02/11 16:09:36;;;;;;;4.35;1.90;;;7.40;75.00;;;;;;9177423;19;20398;-60
2022/02/11 16:12:41;;;;;;;9.70;1.65;;;7.40;75.00;;;;;;9177166;19;20055;-60
2022/02/11 16:15:47;;;;;;;7.68;1.10;;;7.40;74.90;;;;;;9168205;19;20026;-60
2022/02/11 16:18:52;;;;;;;6.70;1.30;;;7.40;74.80;;;;;;9167780;19;20024;-61
2022/02/11 16:22:00;;;;;;;4.72;1.33;;;7.30;74.80;;;;;;9169652;19;20495;-60
2022/02/11 16:25:09;;;;;;;5.60;0.98;;;7.30;74.60;;;;;;9174039;19;20037;-60
2022/02/11 16:28:16;;;;;;;7.00;1.38;;;7.30;74.60;;;;;;9173688;19;20445;-59
2022/02/11 16:31:23;;;;;;;7.13;1.40;;;7.30;74.60;;;;;;9172978;19;20389;-59
2022/02/11 16:34:28;;;;;;;8.25;1.63;;;7.30;74.60;;;;;;9170927;19;21008;-60
2022/02/11 16:37:36;;;;;;;6.13;1.52;;;7.20;74.60;;;;;;9174280;19;20130;-60
2022/02/11 16:40:42;;;;;;;10.18;1.60;;;7.20;74.60;;;;;;9165463;19;20018;-60
2022/02/11 16:43:47;;;;;;;10.65;1.77;;;7.20;74.70;;;;;;9169049;19;20019;-59
2022/02/11 16:46:53;;;;;;;9.57;1.98;;;7.20;74.60;;;;;;9174904;19;20019;-60
2022/02/11 16:49:58;;;;;;;10.68;2.55;;;7.20;74.50;;;;;;9177013;19;20022;-60
2022/02/11 16:53:06;;;;;;;12.85;3.40;;;7.20;74.60;;;;;;9177543;19;20018;-60
2022/02/11 16:56:13;;;;;;;11.50;2.53;;;7.10;74.50;;;;;;9172563;19;20014;-60
2022/02/11 16:59:18;;;;;;;13.68;2.33;;;7.10;74.60;;;;;;9172381;19;20014;-60
2022/02/11 17:02:24;;;;;;;11.85;2.90;;;7.10;74.60;;;;;;9173292;19;20018;-60
2022/02/11 17:05:30;;;;;;;10.65;2.00;;;7.10;74.70;;;;;;9174064;19;20057;-60
2022/02/11 17:08:43;;;;;;;13.25;3.08;;;7.10;74.70;;;;;;9175698;19;20015;-60
2022/02/11 17:11:48;;;;;;;10.43;2.13;;;7.00;74.60;;;;;;9173516;19;20460;-60
2022/02/11 17:14:55;;;;;;;16.13;2.60;;;7.00;74.70;;;;;;9175806;19;20018;-61
2022/02/11 17:17:59;;;;;;;7.30;2.33;;;7.00;74.80;;;;;;9168391;19;20040;-60
2022/02/11 17:21:06;;;;;;;9.18;2.53;;;7.00;74.80;;;;;;9174815;19;20025;-59
2022/02/11 17:24:15;;;;;;;11.23;2.38;;;6.90;74.80;;;;;;9175063;19;20560;-60
2022/02/11 17:27:20;;;;;;;20.92;4.90;;;6.90;74.80;;;;;;9175389;19;20015;-62
2022/02/11 17:30:26;;;;;;;11.43;2.65;;;6.90;74.90;;;;;;9174945;19;20488;-60
2022/02/11 17:33:31;;;;;;;10.02;2.35;;;6.80;74.90;;;;;;9176644;19;20038;-59
2022/02/11 17:36:36;;;;;;;11.85;2.38;;;6.80;74.90;;;;;;9177929;19;20365;-59
2022/02/11 17:39:46;;;;;;;9.95;2.10;;;6.80;74.90;;;;;;9172133;19;20555;-61
2022/02/11 17:42:51;;;;;;;15.05;4.85;;;6.70;74.90;;;;;;9170616;19;20026;-61
2022/02/11 17:45:56;;;;;;;13.93;3.42;;;6.70;75.00;;;;;;9169044;19;20567;-60
2022/02/11 17:49:03;;;;;;;10.82;2.70;;;6.70;75.10;;;;;;9169292;19;20014;-59
2022/02/11 17:52:10;;;;;;;10.95;2.30;;;6.60;75.10;;;;;;9168463;19;20011;-60
2022/02/11 17:55:20;;;;;;;9.32;2.25;;;6.60;75.10;;;;;;9170800;19;20429;-60
2022/02/11 17:58:28;;;;;;;27.75;4.75;;;6.50;75.00;;;;;;9170156;19;20017;-60
2022/02/11 18:01:33;;;;;;;12.90;4.53;;;6.50;75.10;;;;;;9169507;19;20443;-61
2022/02/11 18:04:38;;;;;;;17.65;3.88;;;6.40;75.10;;;;;;9168187;19;20476;-60
2022/02/11 18:07:43;;;;;;;12.88;3.58;;;6.40;75.20;;;;;;9172352;19;20364;-59
2022/02/11 18:10:50;;;;;;;11.90;2.83;;;6.30;75.20;;;;;;9169522;19;20480;-62
2022/02/11 18:13:55;;;;;;;16.33;3.55;;;6.30;75.20;;;;;;9166593;19;20022;-59
2022/02/11 18:17:01;;;;;;;13.98;3.20;;;6.20;75.20;;;;;;9162744;19;20025;-59
2022/02/11 18:20:08;;;;;;;16.15;2.85;;;6.20;75.60;;;;;;9170028;19;20813;-60
2022/02/11 18:23:13;;;;;;;22.65;2.75;;;6.10;75.30;;;;;;9169490;19;20019;-59
2022/02/11 18:26:21;;;;;;;15.63;3.00;;;6.10;75.30;;;;;;9167369;19;20025;-59
2022/02/11 18:29:26;;;;;;;18.05;3.60;;;6.00;75.30;;;;;;9165342;19;20022;-61
2022/02/11 18:32:31;;;;;;;20.40;6.80;;;6.00;75.30;;;;;;9167208;19;20015;-60
2022/02/11 18:35:38;;;;;;;26.42;8.25;;;5.90;75.30;;;;;;9169155;19;20018;-61
2022/02/11 18:38:43;;;;;;;31.52;8.30;;;5.90;75.40;;;;;;9168151;19;20015;-61
2022/02/11 18:41:51;;;;;;;23.15;7.35;;;5.80;75.40;;;;;;9166657;19;20354;-60
2022/02/11 18:44:56;;;;;;;21.05;5.13;;;5.70;75.40;;;;;;9165778;19;20022;-59
2022/02/11 18:48:01;;;;;;;12.13;4.43;;;5.70;75.50;;;;;;9168722;19;20018;-59
2022/02/11 18:51:07;;;;;;;20.23;4.85;;;5.60;75.50;;;;;;9167236;19;20052;-58
2022/02/11 18:54:13;;;;;;;20.15;4.95;;;5.60;75.60;;;;;;9171030;19;20050;-61
2022/02/11 18:57:20;;;;;;;14.07;4.80;;;5.50;75.60;;;;;;9167192;19;20014;-61
2022/02/11 19:00:28;;;;;;;14.20;4.07;;;5.50;75.70;;;;;;9164043;19;20033;-62
2022/02/11 19:03:33;;;;;;;11.70;3.85;;;5.40;75.70;;;;;;9165787;19;20051;-62
2022/02/11 19:06:38;;;;;;;11.15;4.18;;;5.40;75.80;;;;;;9171771;19;20022;-61
2022/02/11 19:09:43;;;;;;;21.90;5.63;;;5.30;75.80;;;;;;9177981;19;20022;-64
2022/02/11 19:12:51;;;;;;;27.83;7.32;;;5.30;75.90;;;;;;9175186;19;20014;-61
2022/02/11 19:15:56;;;;;;;24.65;7.40;;;5.20;75.90;;;;;;9174828;19;20824;-63
2022/02/11 19:19:05;;;;;;;20.17;7.60;;;5.20;75.90;;;;;;9172198;19;20030;-62
2022/02/11 19:22:10;;;;;;;32.10;8.45;;;5.10;76.00;;;;;;9175002;19;20661;-62
2022/02/11 19:25:19;;;;;;;19.63;6.93;;;5.10;75.90;;;;;;9177144;19;20113;-63